sensor_id;sensor_type;location;lat;lon;timestamp;P1;durP1;ratioP1;P2;durP2;ratioP2
49378;SDS011;35254;47.990;-1.608;2023-09-30T00:02:21;19.05;;;12.00;;
49378;SDS011;35254;47.990;-1.608;2023-09-30T00:04:47;18.55;;;11.15;;
49378;SDS011;35254;47.990;-1.608;2023-09-30T00:07:13;15.73;;;11.15;;
49378;SDS011;35254;47.990;-1.608;2023-09-30T00:09:39;17.27;;;11.00;;
49378;SDS011;35254;47.990;-1.608;2023-09-30T00:12:05;19.83;;;11.45;;
49378;SDS011;35254;47.990;-1.608;2023-09-30T00:14:31;16.77;;;9.80;;
49378;SDS011;35254;47.990;-1.608;2023-09-30T00:16:57;17.25;;;11.13;;
49378;SDS011;35254;47.990;-1.608;2023-09-30T00:19:23;17.95;;;11.38;;
49378;SDS011;35254;47.990;-1.608;2023-09-30T00:21:48;16.20;;;10.50;;
49378;SDS011;35254;47.990;-1.608;2023-09-30T00:24:14;18.75;;;10.85;;
49378;SDS011;35254;47.990;-1.608;2023-09-30T00:26:40;14.43;;;10.32;;
49378;SDS011;35254;47.990;-1.608;2023-09-30T00:29:05;12.35;;;9.13;;
49378;SDS011;35254;47.990;-1.608;2023-09-30T00:31:31;13.57;;;9.85;;
49378;SDS011;35254;47.990;-1.608;2023-09-30T00:33:57;15.80;;;8.82;;
49378;SDS011;35254;47.990;-1.608;2023-09-30T00:36:23;16.45;;;9.93;;
49378;SDS011;35254;47.990;-1.608;2023-09-30T00:38:48;15.40;;;9.45;;
49378;SDS011;35254;47.990;-1.608;2023-09-30T00:41:14;18.95;;;9.82;;
49378;SDS011;35254;47.990;-1.608;2023-09-30T00:43:39;12.80;;;9.50;;
49378;SDS011;35254;47.990;-1.608;2023-09-30T00:48:52;15.00;;;9.35;;
49378;SDS011;35254;47.990;-1.608;2023-09-30T00:51:18;11.25;;;8.23;;
49378;SDS011;35254;47.990;-1.608;2023-09-30T00:53:44;13.50;;;7.63;;
49378;SDS011;35254;47.990;-1.608;2023-09-30T00:56:10;12.85;;;8.50;;
49378;SDS011;35254;47.990;-1.608;2023-09-30T00:58:36;17.38;;;8.98;;
49378;SDS011;35254;47.990;-1.608;2023-09-30T01:01:03;12.30;;;8.15;;
49378;SDS011;35254;47.990;-1.608;2023-09-30T01:03:30;12.90;;;8.88;;
49378;SDS011;35254;47.990;-1.608;2023-09-30T01:05:55;14.88;;;8.70;;
49378;SDS011;35254;47.990;-1.608;2023-09-30T01:08:21;12.77;;;8.40;;
49378;SDS011;35254;47.990;-1.608;2023-09-30T01:10:47;12.35;;;7.75;;
49378;SDS011;35254;47.990;-1.608;2023-09-30T01:13:13;10.48;;;7.38;;
49378;SDS011;35254;47.990;-1.608;2023-09-30T01:15:39;14.27;;;8.00;;
49378;SDS011;35254;47.990;-1.608;2023-09-30T01:18:05;14.95;;;8.07;;
49378;SDS011;35254;47.990;-1.608;2023-09-30T01:20:31;15.40;;;7.68;;
49378;SDS011;35254;47.990;-1.608;2023-09-30T01:22:57;12.10;;;7.45;;
49378;SDS011;35254;47.990;-1.608;2023-09-30T01:25:23;12.07;;;7.75;;
49378;SDS011;35254;47.990;-1.608;2023-09-30T01:27:52;9.30;;;6.97;;
49378;SDS011;35254;47.990;-1.608;2023-09-30T01:30:19;10.32;;;6.13;;
49378;SDS011;35254;47.990;-1.608;2023-09-30T01:32:47;10.88;;;7.20;;
49378;SDS011;35254;47.990;-1.608;2023-09-30T01:35:13;13.63;;;7.15;;
49378;SDS011;35254;47.990;-1.608;2023-09-30T01:37:39;11.55;;;7.07;;
49378;SDS011;35254;47.990;-1.608;2023-09-30T01:40:04;9.02;;;6.07;;
49378;SDS011;35254;47.990;-1.608;2023-09-30T01:42:33;11.38;;;6.93;;
49378;SDS011;35254;47.990;-1.608;2023-09-30T01:44:58;9.52;;;6.35;;
49378;SDS011;35254;47.990;-1.608;2023-09-30T01:47:24;10.55;;;6.07;;
49378;SDS011;35254;47.990;-1.608;2023-09-30T01:49:50;11.35;;;6.05;;
49378;SDS011;35254;47.990;-1.608;2023-09-30T01:52:15;9.65;;;5.88;;
49378;SDS011;35254;47.990;-1.608;2023-09-30T01:54:41;11.25;;;5.90;;
49378;SDS011;35254;47.990;-1.608;2023-09-30T01:57:06;11.13;;;5.93;;
49378;SDS011;35254;47.990;-1.608;2023-09-30T01:59:32;10.65;;;6.32;;
49378;SDS011;35254;47.990;-1.608;2023-09-30T02:01:58;8.32;;;4.90;;
49378;SDS011;35254;47.990;-1.608;2023-09-30T02:04:24;12.90;;;6.68;;
49378;SDS011;35254;47.990;-1.608;2023-09-30T02:06:49;11.45;;;5.70;;
49378;SDS011;35254;47.990;-1.608;2023-09-30T02:09:15;8.32;;;5.63;;
49378;SDS011;35254;47.990;-1.608;2023-09-30T02:11:41;7.28;;;4.50;;
49378;SDS011;35254;47.990;-1.608;2023-09-30T02:14:07;12.35;;;6.03;;
49378;SDS011;35254;47.990;-1.608;2023-09-30T02:16:32;9.52;;;5.38;;
49378;SDS011;35254;47.990;-1.608;2023-09-30T02:18:58;9.40;;;5.20;;
49378;SDS011;35254;47.990;-1.608;2023-09-30T02:21:24;7.20;;;4.82;;
49378;SDS011;35254;47.990;-1.608;2023-09-30T02:23:49;10.18;;;5.53;;
49378;SDS011;35254;47.990;-1.608;2023-09-30T02:28:45;10.38;;;5.57;;
49378;SDS011;35254;47.990;-1.608;2023-09-30T02:31:11;7.50;;;5.20;;
49378;SDS011;35254;47.990;-1.608;2023-09-30T02:33:37;7.72;;;5.50;;
49378;SDS011;35254;47.990;-1.608;2023-09-30T02:36:06;7.95;;;4.03;;
49378;SDS011;35254;47.990;-1.608;2023-09-30T02:38:33;6.03;;;5.03;;
49378;SDS011;35254;47.990;-1.608;2023-09-30T02:41:01;7.25;;;4.28;;
49378;SDS011;35254;47.990;-1.608;2023-09-30T02:43:27;6.43;;;3.97;;
49378;SDS011;35254;47.990;-1.608;2023-09-30T02:45:53;6.85;;;4.22;;
49378;SDS011;35254;47.990;-1.608;2023-09-30T02:48:19;8.50;;;4.65;;
49378;SDS011;35254;47.990;-1.608;2023-09-30T02:50:44;10.48;;;5.20;;
49378;SDS011;35254;47.990;-1.608;2023-09-30T02:53:10;9.45;;;4.70;;
49378;SDS011;35254;47.990;-1.608;2023-09-30T02:55:37;8.85;;;4.40;;
49378;SDS011;35254;47.990;-1.608;2023-09-30T02:58:03;9.23;;;4.93;;
49378;SDS011;35254;47.990;-1.608;2023-09-30T03:00:29;10.07;;;4.63;;
49378;SDS011;35254;47.990;-1.608;2023-09-30T03:02:59;6.22;;;4.65;;
49378;SDS011;35254;47.990;-1.608;2023-09-30T03:05:27;7.35;;;4.22;;
49378;SDS011;35254;47.990;-1.608;2023-09-30T03:07:55;9.02;;;4.07;;
49378;SDS011;35254;47.990;-1.608;2023-09-30T03:10:21;8.55;;;4.20;;
49378;SDS011;35254;47.990;-1.608;2023-09-30T03:12:48;15.00;;;4.47;;
49378;SDS011;35254;47.990;-1.608;2023-09-30T03:15:15;7.55;;;3.88;;
49378;SDS011;35254;47.990;-1.608;2023-09-30T03:17:41;6.30;;;3.67;;
49378;SDS011;35254;47.990;-1.608;2023-09-30T03:20:08;5.85;;;3.80;;
49378;SDS011;35254;47.990;-1.608;2023-09-30T03:22:39;5.30;;;3.60;;
49378;SDS011;35254;47.990;-1.608;2023-09-30T03:25:05;5.85;;;3.70;;
49378;SDS011;35254;47.990;-1.608;2023-09-30T03:27:35;9.95;;;4.28;;
49378;SDS011;35254;47.990;-1.608;2023-09-30T03:30:05;6.23;;;3.37;;
49378;SDS011;35254;47.990;-1.608;2023-09-30T03:32:31;5.97;;;3.65;;
49378;SDS011;35254;47.990;-1.608;2023-09-30T03:35:01;6.05;;;3.78;;
49378;SDS011;35254;47.990;-1.608;2023-09-30T03:37:27;4.35;;;3.70;;
49378;SDS011;35254;47.990;-1.608;2023-09-30T03:39:54;5.03;;;3.65;;
49378;SDS011;35254;47.990;-1.608;2023-09-30T03:42:20;7.40;;;4.13;;
49378;SDS011;35254;47.990;-1.608;2023-09-30T03:44:46;7.88;;;3.85;;
49378;SDS011;35254;47.990;-1.608;2023-09-30T03:47:13;9.15;;;3.85;;
49378;SDS011;35254;47.990;-1.608;2023-09-30T03:49:38;5.82;;;4.22;;
49378;SDS011;35254;47.990;-1.608;2023-09-30T03:52:04;5.20;;;3.40;;
49378;SDS011;35254;47.990;-1.608;2023-09-30T03:54:31;5.57;;;3.58;;
49378;SDS011;35254;47.990;-1.608;2023-09-30T03:56:57;9.02;;;4.15;;
49378;SDS011;35254;47.990;-1.608;2023-09-30T03:59:22;4.57;;;3.38;;
49378;SDS011;35254;47.990;-1.608;2023-09-30T04:01:48;7.50;;;4.18;;
49378;SDS011;35254;47.990;-1.608;2023-09-30T04:04:13;6.95;;;3.78;;
49378;SDS011;35254;47.990;-1.608;2023-09-30T04:06:39;5.13;;;3.63;;
49378;SDS011;35254;47.990;-1.608;2023-09-30T04:09:05;6.20;;;3.75;;
49378;SDS011;35254;47.990;-1.608;2023-09-30T04:11:37;5.30;;;2.95;;
49378;SDS011;35254;47.990;-1.608;2023-09-30T04:14:03;5.22;;;2.92;;
49378;SDS011;35254;47.990;-1.608;2023-09-30T04:16:33;4.40;;;2.95;;
49378;SDS011;35254;47.990;-1.608;2023-09-30T04:18:58;6.78;;;3.38;;
49378;SDS011;35254;47.990;-1.608;2023-09-30T04:21:25;5.28;;;3.42;;
49378;SDS011;35254;47.990;-1.608;2023-09-30T04:23:52;4.72;;;2.83;;
49378;SDS011;35254;47.990;-1.608;2023-09-30T04:26:18;12.48;;;3.05;;
49378;SDS011;35254;47.990;-1.608;2023-09-30T04:28:44;4.18;;;2.90;;
49378;SDS011;35254;47.990;-1.608;2023-09-30T04:31:10;6.38;;;3.42;;
49378;SDS011;35254;47.990;-1.608;2023-09-30T04:33:38;4.72;;;2.70;;
49378;SDS011;35254;47.990;-1.608;2023-09-30T04:36:05;4.95;;;3.33;;
49378;SDS011;35254;47.990;-1.608;2023-09-30T04:38:33;6.10;;;2.65;;
49378;SDS011;35254;47.990;-1.608;2023-09-30T04:40:59;5.10;;;3.10;;
49378;SDS011;35254;47.990;-1.608;2023-09-30T04:43:25;6.22;;;3.08;;
49378;SDS011;35254;47.990;-1.608;2023-09-30T04:45:54;6.13;;;3.42;;
49378;SDS011;35254;47.990;-1.608;2023-09-30T04:48:22;5.45;;;3.08;;
49378;SDS011;35254;47.990;-1.608;2023-09-30T04:50:48;7.35;;;3.10;;
49378;SDS011;35254;47.990;-1.608;2023-09-30T04:53:14;4.55;;;2.50;;
49378;SDS011;35254;47.990;-1.608;2023-09-30T04:55:42;4.03;;;2.55;;
49378;SDS011;35254;47.990;-1.608;2023-09-30T04:58:08;4.85;;;2.47;;
49378;SDS011;35254;47.990;-1.608;2023-09-30T05:00:34;4.68;;;2.83;;
49378;SDS011;35254;47.990;-1.608;2023-09-30T05:03:00;5.70;;;2.88;;
49378;SDS011;35254;47.990;-1.608;2023-09-30T05:05:25;3.95;;;2.80;;
49378;SDS011;35254;47.990;-1.608;2023-09-30T05:07:51;6.63;;;2.55;;
49378;SDS011;35254;47.990;-1.608;2023-09-30T05:10:17;4.97;;;2.92;;
49378;SDS011;35254;47.990;-1.608;2023-09-30T05:12:44;4.00;;;2.33;;
49378;SDS011;35254;47.990;-1.608;2023-09-30T05:15:13;3.85;;;2.47;;
49378;SDS011;35254;47.990;-1.608;2023-09-30T05:17:44;3.67;;;2.65;;
49378;SDS011;35254;47.990;-1.608;2023-09-30T05:20:10;4.10;;;2.47;;
49378;SDS011;35254;47.990;-1.608;2023-09-30T05:22:38;6.15;;;2.45;;
49378;SDS011;35254;47.990;-1.608;2023-09-30T05:25:10;3.50;;;2.78;;
49378;SDS011;35254;47.990;-1.608;2023-09-30T05:27:43;8.52;;;2.63;;
49378;SDS011;35254;47.990;-1.608;2023-09-30T05:30:09;5.80;;;2.90;;
49378;SDS011;35254;47.990;-1.608;2023-09-30T05:32:36;3.63;;;2.15;;
49378;SDS011;35254;47.990;-1.608;2023-09-30T05:35:04;8.18;;;2.88;;
49378;SDS011;35254;47.990;-1.608;2023-09-30T05:37:38;8.10;;;2.53;;
49378;SDS011;35254;47.990;-1.608;2023-09-30T05:40:07;3.17;;;2.38;;
49378;SDS011;35254;47.990;-1.608;2023-09-30T05:42:52;4.38;;;2.20;;
49378;SDS011;35254;47.990;-1.608;2023-09-30T05:45:19;4.38;;;2.47;;
49378;SDS011;35254;47.990;-1.608;2023-09-30T05:47:44;3.97;;;2.53;;
49378;SDS011;35254;47.990;-1.608;2023-09-30T05:50:10;4.53;;;2.65;;
49378;SDS011;35254;47.990;-1.608;2023-09-30T05:52:42;4.60;;;2.42;;
49378;SDS011;35254;47.990;-1.608;2023-09-30T05:55:09;5.53;;;1.92;;
49378;SDS011;35254;47.990;-1.608;2023-09-30T05:57:35;3.45;;;2.15;;
49378;SDS011;35254;47.990;-1.608;2023-09-30T06:00:02;6.15;;;2.22;;
49378;SDS011;35254;47.990;-1.608;2023-09-30T06:02:39;8.05;;;2.88;;
49378;SDS011;35254;47.990;-1.608;2023-09-30T06:05:05;4.28;;;2.35;;
49378;SDS011;35254;47.990;-1.608;2023-09-30T06:07:31;2.78;;;1.80;;
49378;SDS011;35254;47.990;-1.608;2023-09-30T06:09:58;3.33;;;1.83;;
49378;SDS011;35254;47.990;-1.608;2023-09-30T06:12:28;4.03;;;1.98;;
49378;SDS011;35254;47.990;-1.608;2023-09-30T06:14:53;8.90;;;1.80;;
49378;SDS011;35254;47.990;-1.608;2023-09-30T06:17:19;4.88;;;1.80;;
49378;SDS011;35254;47.990;-1.608;2023-09-30T06:19:47;5.43;;;2.80;;
49378;SDS011;35254;47.990;-1.608;2023-09-30T06:22:15;3.72;;;2.00;;
49378;SDS011;35254;47.990;-1.608;2023-09-30T06:24:41;5.03;;;2.95;;
49378;SDS011;35254;47.990;-1.608;2023-09-30T06:27:07;4.10;;;2.42;;
49378;SDS011;35254;47.990;-1.608;2023-09-30T06:29:32;4.43;;;2.47;;
49378;SDS011;35254;47.990;-1.608;2023-09-30T06:31:58;4.28;;;2.13;;
49378;SDS011;35254;47.990;-1.608;2023-09-30T06:34:24;4.32;;;2.50;;
49378;SDS011;35254;47.990;-1.608;2023-09-30T06:36:50;5.28;;;2.83;;
49378;SDS011;35254;47.990;-1.608;2023-09-30T06:39:18;6.15;;;2.97;;
49378;SDS011;35254;47.990;-1.608;2023-09-30T06:41:44;5.03;;;2.38;;
49378;SDS011;35254;47.990;-1.608;2023-09-30T06:44:11;8.82;;;2.13;;
49378;SDS011;35254;47.990;-1.608;2023-09-30T06:46:37;4.03;;;2.00;;
49378;SDS011;35254;47.990;-1.608;2023-09-30T06:49:04;8.68;;;3.08;;
49378;SDS011;35254;47.990;-1.608;2023-09-30T06:51:30;5.97;;;2.17;;
49378;SDS011;35254;47.990;-1.608;2023-09-30T06:53:56;5.80;;;2.10;;
49378;SDS011;35254;47.990;-1.608;2023-09-30T06:56:21;3.08;;;1.95;;
49378;SDS011;35254;47.990;-1.608;2023-09-30T06:58:47;6.75;;;1.83;;
49378;SDS011;35254;47.990;-1.608;2023-09-30T07:01:16;4.45;;;1.85;;
49378;SDS011;35254;47.990;-1.608;2023-09-30T07:03:44;4.68;;;1.85;;
49378;SDS011;35254;47.990;-1.608;2023-09-30T07:06:10;2.35;;;1.70;;
49378;SDS011;35254;47.990;-1.608;2023-09-30T07:08:36;7.32;;;2.50;;
49378;SDS011;35254;47.990;-1.608;2023-09-30T07:11:02;4.00;;;2.33;;
49378;SDS011;35254;47.990;-1.608;2023-09-30T07:13:30;3.33;;;2.30;;
49378;SDS011;35254;47.990;-1.608;2023-09-30T07:15:56;12.40;;;3.33;;
49378;SDS011;35254;47.990;-1.608;2023-09-30T07:18:21;3.58;;;1.83;;
49378;SDS011;35254;47.990;-1.608;2023-09-30T07:20:49;2.92;;;2.10;;
49378;SDS011;35254;47.990;-1.608;2023-09-30T07:23:16;5.32;;;2.35;;
49378;SDS011;35254;47.990;-1.608;2023-09-30T07:25:41;5.10;;;2.28;;
49378;SDS011;35254;47.990;-1.608;2023-09-30T07:28:07;4.22;;;2.40;;
49378;SDS011;35254;47.990;-1.608;2023-09-30T07:30:36;5.72;;;2.38;;
49378;SDS011;35254;47.990;-1.608;2023-09-30T07:33:02;7.35;;;2.42;;
49378;SDS011;35254;47.990;-1.608;2023-09-30T07:35:29;4.65;;;1.95;;
49378;SDS011;35254;47.990;-1.608;2023-09-30T07:37:54;11.13;;;3.08;;
49378;SDS011;35254;47.990;-1.608;2023-09-30T07:40:20;12.95;;;3.70;;
49378;SDS011;35254;47.990;-1.608;2023-09-30T07:42:46;6.50;;;2.75;;
49378;SDS011;35254;47.990;-1.608;2023-09-30T07:45:12;7.20;;;2.63;;
49378;SDS011;35254;47.990;-1.608;2023-09-30T07:47:42;9.63;;;3.28;;
49378;SDS011;35254;47.990;-1.608;2023-09-30T07:50:09;17.77;;;2.83;;
49378;SDS011;35254;47.990;-1.608;2023-09-30T07:52:35;8.30;;;2.13;;
49378;SDS011;35254;47.990;-1.608;2023-09-30T07:55:01;11.63;;;2.92;;
49378;SDS011;35254;47.990;-1.608;2023-09-30T07:57:29;10.82;;;3.13;;
49378;SDS011;35254;47.990;-1.608;2023-09-30T07:59:55;9.02;;;2.80;;
49378;SDS011;35254;47.990;-1.608;2023-09-30T08:02:21;11.27;;;4.53;;
49378;SDS011;35254;47.990;-1.608;2023-09-30T08:04:47;14.52;;;2.83;;
49378;SDS011;35254;47.990;-1.608;2023-09-30T08:07:13;9.73;;;3.22;;
49378;SDS011;35254;47.990;-1.608;2023-09-30T08:09:38;8.98;;;3.67;;
49378;SDS011;35254;47.990;-1.608;2023-09-30T08:12:04;6.88;;;2.15;;
49378;SDS011;35254;47.990;-1.608;2023-09-30T08:14:31;8.77;;;2.30;;
49378;SDS011;35254;47.990;-1.608;2023-09-30T08:16:57;7.10;;;2.95;;
49378;SDS011;35254;47.990;-1.608;2023-09-30T08:19:22;6.93;;;2.20;;
49378;SDS011;35254;47.990;-1.608;2023-09-30T08:21:48;7.95;;;1.92;;
49378;SDS011;35254;47.990;-1.608;2023-09-30T08:24:14;7.20;;;2.17;;
49378;SDS011;35254;47.990;-1.608;2023-09-30T08:26:39;9.05;;;3.30;;
49378;SDS011;35254;47.990;-1.608;2023-09-30T08:29:06;4.15;;;1.90;;
49378;SDS011;35254;47.990;-1.608;2023-09-30T08:31:31;6.63;;;2.47;;
49378;SDS011;35254;47.990;-1.608;2023-09-30T08:33:58;6.68;;;2.20;;
49378;SDS011;35254;47.990;-1.608;2023-09-30T08:36:23;6.95;;;2.80;;
49378;SDS011;35254;47.990;-1.608;2023-09-30T08:38:49;8.95;;;2.22;;
49378;SDS011;35254;47.990;-1.608;2023-09-30T08:41:31;8.27;;;2.58;;
49378;SDS011;35254;47.990;-1.608;2023-09-30T08:44:01;6.38;;;2.17;;
49378;SDS011;35254;47.990;-1.608;2023-09-30T08:46:33;5.13;;;2.40;;
49378;SDS011;35254;47.990;-1.608;2023-09-30T08:49:02;4.53;;;2.10;;
49378;SDS011;35254;47.990;-1.608;2023-09-30T08:51:30;8.23;;;2.65;;
49378;SDS011;35254;47.990;-1.608;2023-09-30T08:53:57;5.78;;;2.30;;
49378;SDS011;35254;47.990;-1.608;2023-09-30T08:56:27;4.50;;;2.30;;
49378;SDS011;35254;47.990;-1.608;2023-09-30T09:01:32;6.63;;;2.50;;
49378;SDS011;35254;47.990;-1.608;2023-09-30T09:03:59;8.18;;;2.42;;
49378;SDS011;35254;47.990;-1.608;2023-09-30T09:06:27;11.82;;;2.60;;
49378;SDS011;35254;47.990;-1.608;2023-09-30T09:08:52;6.25;;;1.90;;
49378;SDS011;35254;47.990;-1.608;2023-09-30T09:11:18;6.22;;;2.50;;
49378;SDS011;35254;47.990;-1.608;2023-09-30T09:16:20;5.18;;;2.63;;
49378;SDS011;35254;47.990;-1.608;2023-09-30T09:18:47;12.52;;;3.05;;
49378;SDS011;35254;47.990;-1.608;2023-09-30T09:21:17;6.55;;;2.75;;
49378;SDS011;35254;47.990;-1.608;2023-09-30T09:23:49;6.90;;;2.33;;
49378;SDS011;35254;47.990;-1.608;2023-09-30T09:28:49;5.20;;;2.00;;
49378;SDS011;35254;47.990;-1.608;2023-09-30T09:31:21;5.40;;;2.45;;
49378;SDS011;35254;47.990;-1.608;2023-09-30T09:33:48;3.88;;;1.95;;
49378;SDS011;35254;47.990;-1.608;2023-09-30T09:36:15;7.15;;;2.38;;
49378;SDS011;35254;47.990;-1.608;2023-09-30T09:38:45;5.53;;;2.30;;
49378;SDS011;35254;47.990;-1.608;2023-09-30T09:41:15;5.07;;;2.35;;
49378;SDS011;35254;47.990;-1.608;2023-09-30T09:43:41;7.32;;;2.25;;
49378;SDS011;35254;47.990;-1.608;2023-09-30T09:46:08;5.25;;;2.10;;
49378;SDS011;35254;47.990;-1.608;2023-09-30T09:48:37;3.88;;;2.55;;
49378;SDS011;35254;47.990;-1.608;2023-09-30T09:51:03;7.47;;;2.60;;
49378;SDS011;35254;47.990;-1.608;2023-09-30T09:53:36;4.05;;;2.10;;
49378;SDS011;35254;47.990;-1.608;2023-09-30T09:56:04;7.03;;;2.00;;
49378;SDS011;35254;47.990;-1.608;2023-09-30T09:58:34;7.05;;;2.60;;
49378;SDS011;35254;47.990;-1.608;2023-09-30T10:01:03;5.70;;;2.25;;
49378;SDS011;35254;47.990;-1.608;2023-09-30T10:03:31;6.30;;;2.22;;
49378;SDS011;35254;47.990;-1.608;2023-09-30T10:05:57;6.53;;;2.65;;
49378;SDS011;35254;47.990;-1.608;2023-09-30T10:08:29;3.30;;;2.22;;
49378;SDS011;35254;47.990;-1.608;2023-09-30T10:11:05;6.13;;;2.42;;
49378;SDS011;35254;47.990;-1.608;2023-09-30T10:17:08;7.28;;;2.83;;
49378;SDS011;35254;47.990;-1.608;2023-09-30T10:24:53;5.33;;;2.37;;
49378;SDS011;35254;47.990;-1.608;2023-09-30T10:35:20;6.85;;;2.10;;
49378;SDS011;35254;47.990;-1.608;2023-09-30T10:40:52;8.00;;;2.88;;
49378;SDS011;35254;47.990;-1.608;2023-09-30T10:48:51;3.83;;;2.28;;
49378;SDS011;35254;47.990;-1.608;2023-09-30T10:51:17;4.28;;;2.60;;
49378;SDS011;35254;47.990;-1.608;2023-09-30T10:56:16;5.63;;;2.08;;
49378;SDS011;35254;47.990;-1.608;2023-09-30T10:58:44;6.50;;;2.55;;
49378;SDS011;35254;47.990;-1.608;2023-09-30T11:01:12;8.18;;;2.90;;
49378;SDS011;35254;47.990;-1.608;2023-09-30T11:03:39;6.13;;;2.42;;
49378;SDS011;35254;47.990;-1.608;2023-09-30T11:06:06;7.55;;;2.72;;
49378;SDS011;35254;47.990;-1.608;2023-09-30T11:08:32;6.22;;;2.38;;
49378;SDS011;35254;47.990;-1.608;2023-09-30T11:10:58;4.15;;;2.40;;
49378;SDS011;35254;47.990;-1.608;2023-09-30T11:13:30;4.60;;;2.40;;
49378;SDS011;35254;47.990;-1.608;2023-09-30T11:16:04;6.78;;;3.05;;
49378;SDS011;35254;47.990;-1.608;2023-09-30T11:18:30;5.32;;;3.00;;
49378;SDS011;35254;47.990;-1.608;2023-09-30T11:21:03;5.60;;;2.75;;
49378;SDS011;35254;47.990;-1.608;2023-09-30T11:23:30;8.13;;;2.42;;
49378;SDS011;35254;47.990;-1.608;2023-09-30T11:25:56;3.20;;;2.05;;
49378;SDS011;35254;47.990;-1.608;2023-09-30T11:28:22;4.82;;;2.42;;
49378;SDS011;35254;47.990;-1.608;2023-09-30T11:30:57;4.88;;;2.25;;
49378;SDS011;35254;47.990;-1.608;2023-09-30T11:33:24;6.25;;;2.90;;
49378;SDS011;35254;47.990;-1.608;2023-09-30T11:36:03;5.68;;;2.67;;
49378;SDS011;35254;47.990;-1.608;2023-09-30T11:38:31;7.28;;;2.58;;
49378;SDS011;35254;47.990;-1.608;2023-09-30T11:41:00;4.57;;;2.75;;
49378;SDS011;35254;47.990;-1.608;2023-09-30T11:43:32;5.72;;;2.70;;
49378;SDS011;35254;47.990;-1.608;2023-09-30T11:46:11;7.57;;;3.08;;
49378;SDS011;35254;47.990;-1.608;2023-09-30T11:48:40;5.47;;;3.30;;
49378;SDS011;35254;47.990;-1.608;2023-09-30T11:51:21;6.15;;;2.88;;
49378;SDS011;35254;47.990;-1.608;2023-09-30T11:53:51;4.05;;;2.30;;
49378;SDS011;35254;47.990;-1.608;2023-09-30T11:56:18;7.70;;;2.70;;
49378;SDS011;35254;47.990;-1.608;2023-09-30T11:58:44;5.20;;;2.67;;
49378;SDS011;35254;47.990;-1.608;2023-09-30T12:01:11;4.43;;;2.58;;
49378;SDS011;35254;47.990;-1.608;2023-09-30T12:03:39;5.80;;;2.65;;
49378;SDS011;35254;47.990;-1.608;2023-09-30T12:06:05;6.20;;;2.92;;
49378;SDS011;35254;47.990;-1.608;2023-09-30T12:08:31;4.75;;;2.63;;
49378;SDS011;35254;47.990;-1.608;2023-09-30T12:10:57;7.28;;;2.97;;
49378;SDS011;35254;47.990;-1.608;2023-09-30T12:13:24;5.20;;;2.58;;
49378;SDS011;35254;47.990;-1.608;2023-09-30T12:15:51;4.78;;;2.75;;
49378;SDS011;35254;47.990;-1.608;2023-09-30T12:18:18;5.60;;;2.92;;
49378;SDS011;35254;47.990;-1.608;2023-09-30T12:20:48;6.55;;;2.65;;
49378;SDS011;35254;47.990;-1.608;2023-09-30T12:23:14;5.45;;;2.67;;
49378;SDS011;35254;47.990;-1.608;2023-09-30T12:25:42;10.25;;;3.47;;
49378;SDS011;35254;47.990;-1.608;2023-09-30T12:28:08;5.47;;;3.55;;
49378;SDS011;35254;47.990;-1.608;2023-09-30T12:30:34;5.65;;;2.70;;
49378;SDS011;35254;47.990;-1.608;2023-09-30T12:33:00;5.40;;;3.03;;
49378;SDS011;35254;47.990;-1.608;2023-09-30T12:35:26;4.85;;;3.08;;
49378;SDS011;35254;47.990;-1.608;2023-09-30T12:37:52;7.03;;;2.97;;
49378;SDS011;35254;47.990;-1.608;2023-09-30T12:40:18;8.15;;;3.10;;
49378;SDS011;35254;47.990;-1.608;2023-09-30T12:42:43;5.32;;;2.50;;
49378;SDS011;35254;47.990;-1.608;2023-09-30T12:45:10;9.02;;;2.72;;
49378;SDS011;35254;47.990;-1.608;2023-09-30T12:47:37;7.07;;;2.70;;
49378;SDS011;35254;47.990;-1.608;2023-09-30T12:50:03;7.05;;;3.17;;
49378;SDS011;35254;47.990;-1.608;2023-09-30T12:52:29;7.65;;;3.17;;
49378;SDS011;35254;47.990;-1.608;2023-09-30T12:54:58;5.93;;;2.70;;
49378;SDS011;35254;47.990;-1.608;2023-09-30T12:57:23;5.72;;;2.85;;
49378;SDS011;35254;47.990;-1.608;2023-09-30T12:59:49;6.78;;;3.30;;
49378;SDS011;35254;47.990;-1.608;2023-09-30T13:02:15;5.75;;;3.25;;
49378;SDS011;35254;47.990;-1.608;2023-09-30T13:04:43;6.38;;;3.00;;
49378;SDS011;35254;47.990;-1.608;2023-09-30T13:07:10;4.47;;;2.40;;
49378;SDS011;35254;47.990;-1.608;2023-09-30T13:09:36;5.68;;;3.25;;
49378;SDS011;35254;47.990;-1.608;2023-09-30T13:12:05;7.53;;;3.20;;
49378;SDS011;35254;47.990;-1.608;2023-09-30T13:14:31;6.18;;;2.78;;
49378;SDS011;35254;47.990;-1.608;2023-09-30T13:16:57;4.85;;;2.70;;
49378;SDS011;35254;47.990;-1.608;2023-09-30T13:19:23;5.50;;;2.95;;
49378;SDS011;35254;47.990;-1.608;2023-09-30T13:21:49;6.80;;;3.78;;
49378;SDS011;35254;47.990;-1.608;2023-09-30T13:24:16;5.95;;;2.70;;
49378;SDS011;35254;47.990;-1.608;2023-09-30T13:26:41;6.20;;;3.25;;
49378;SDS011;35254;47.990;-1.608;2023-09-30T13:29:07;5.90;;;3.25;;
49378;SDS011;35254;47.990;-1.608;2023-09-30T13:31:35;8.70;;;4.00;;
49378;SDS011;35254;47.990;-1.608;2023-09-30T13:34:04;7.80;;;3.72;;
49378;SDS011;35254;47.990;-1.608;2023-09-30T13:36:30;9.27;;;3.35;;
49378;SDS011;35254;47.990;-1.608;2023-09-30T13:38:56;9.15;;;3.65;;
49378;SDS011;35254;47.990;-1.608;2023-09-30T13:41:21;5.38;;;3.08;;
49378;SDS011;35254;47.990;-1.608;2023-09-30T13:43:47;5.70;;;3.38;;
49378;SDS011;35254;47.990;-1.608;2023-09-30T13:46:13;7.70;;;3.28;;
49378;SDS011;35254;47.990;-1.608;2023-09-30T13:48:38;5.38;;;2.80;;
49378;SDS011;35254;47.990;-1.608;2023-09-30T13:51:10;5.57;;;3.33;;
49378;SDS011;35254;47.990;-1.608;2023-09-30T13:53:36;6.20;;;2.97;;
49378;SDS011;35254;47.990;-1.608;2023-09-30T13:56:02;6.22;;;3.72;;
49378;SDS011;35254;47.990;-1.608;2023-09-30T13:58:30;7.35;;;3.13;;
49378;SDS011;35254;47.990;-1.608;2023-09-30T14:00:56;5.55;;;3.08;;
49378;SDS011;35254;47.990;-1.608;2023-09-30T14:03:22;5.72;;;3.38;;
49378;SDS011;35254;47.990;-1.608;2023-09-30T14:05:49;7.75;;;3.40;;
49378;SDS011;35254;47.990;-1.608;2023-09-30T14:08:15;6.70;;;3.13;;
49378;SDS011;35254;47.990;-1.608;2023-09-30T14:10:41;6.40;;;3.10;;
49378;SDS011;35254;47.990;-1.608;2023-09-30T14:13:09;8.93;;;3.30;;
49378;SDS011;35254;47.990;-1.608;2023-09-30T14:15:35;7.15;;;3.47;;
49378;SDS011;35254;47.990;-1.608;2023-09-30T14:18:01;5.53;;;2.97;;
49378;SDS011;35254;47.990;-1.608;2023-09-30T14:20:27;6.63;;;3.70;;
49378;SDS011;35254;47.990;-1.608;2023-09-30T14:22:53;7.05;;;3.40;;
49378;SDS011;35254;47.990;-1.608;2023-09-30T14:25:22;6.03;;;3.38;;
49378;SDS011;35254;47.990;-1.608;2023-09-30T14:27:48;7.85;;;3.60;;
49378;SDS011;35254;47.990;-1.608;2023-09-30T14:30:14;6.18;;;3.67;;
49378;SDS011;35254;47.990;-1.608;2023-09-30T14:32:40;6.80;;;3.70;;
49378;SDS011;35254;47.990;-1.608;2023-09-30T14:35:07;8.20;;;3.67;;
49378;SDS011;35254;47.990;-1.608;2023-09-30T14:37:34;8.25;;;3.65;;
49378;SDS011;35254;47.990;-1.608;2023-09-30T14:40:00;7.47;;;3.70;;
49378;SDS011;35254;47.990;-1.608;2023-09-30T14:42:30;6.95;;;3.25;;
49378;SDS011;35254;47.990;-1.608;2023-09-30T14:44:56;5.43;;;3.15;;
49378;SDS011;35254;47.990;-1.608;2023-09-30T14:47:21;7.68;;;3.65;;
49378;SDS011;35254;47.990;-1.608;2023-09-30T14:49:47;10.80;;;4.25;;
49378;SDS011;35254;47.990;-1.608;2023-09-30T14:52:13;7.18;;;3.80;;
49378;SDS011;35254;47.990;-1.608;2023-09-30T14:54:40;6.60;;;3.08;;
49378;SDS011;35254;47.990;-1.608;2023-09-30T14:57:06;5.45;;;3.00;;
49378;SDS011;35254;47.990;-1.608;2023-09-30T14:59:33;10.23;;;4.20;;
49378;SDS011;35254;47.990;-1.608;2023-09-30T15:01:59;4.93;;;3.33;;
49378;SDS011;35254;47.990;-1.608;2023-09-30T15:04:24;7.72;;;3.75;;
49378;SDS011;35254;47.990;-1.608;2023-09-30T15:06:50;8.30;;;3.85;;
49378;SDS011;35254;47.990;-1.608;2023-09-30T15:09:16;6.60;;;3.15;;
49378;SDS011;35254;47.990;-1.608;2023-09-30T15:11:42;7.38;;;3.08;;